Northpoint, Pennsylvania
Current Conditions -  °F | °C
As of 4:55 AM on Monday 22 Dec 2014 (Local Time) from KIDI Reporting Station
Clear Clear  
Wind Chill: 28°   Ceiling: Unl
Heat Index: 28°   Visibility: 10mi
Dew Point: 23°   Wind: 3mph
Humidity: 80%   Direction: NA
Pressure: 30.17"   Gusts: NA
Location:  40.91°N, 79.13°W
Report Text: KIDI 220955Z AUTO VRB03KT 10SM CLR M02/M05 A3017 RMK A01
Loading
Personal Weather Stations






























Interactive Weather Map New forecast layout! Learn more

10-Day Weather Forecast

Advertisements
Track Severe Weather on mobile